Date,TemperatureHighF,TemperatureAvgF,TemperatureLowF,DewpointHighF,DewpointAvgF,DewpointLowF,HumidityHigh,HumidityAvg,HumidityLow,PressureMaxIn,PressureMinIn,WindSpeedMaxMPH,WindSpeedAvgMPH,GustSpeedMaxMPH,PrecipitationSumIn
2013-2-1,72,69,66,63,62,58,85,77,68,30.05,29.97,28,11,37,0.00
2013-2-2,76,70,67,64,62,60,84,76,64,30.08,29.99,18,9,26,0.00
2013-2-3,72,68,65,61,59,57,81,75,68,30.11,30.01,29,11,37,0.00
2013-2-4,71,68,67,64,61,57,84,77,70,30.06,29.96,29,12,37,0.01
2013-2-5,73,69,66,63,61,57,86,77,68,30.03,29.94,24,10,31,0.04
2013-2-6,73,69,65,66,64,61,91,85,77,30.03,29.94,19,9,24,0.27
2013-2-7,77,70,68,68,66,64,91,85,74,30.05,29.96,21,8,23,0.10
2013-2-8,77,71,68,66,64,63,88,81,67,30.06,29.97,20,7,22,0.02
2013-2-9,75,70,68,66,64,62,89,81,71,30.08,29.97,22,7,28,0.01
2013-2-10,72,69,67,67,64,62,90,84,79,30.12,30.00,28,11,31,0.04
2013-2-11,71,68,65,66,64,61,92,87,81,30.14,30.04,23,10,28,0.52
2013-2-12,71,67,63,62,60,56,89,79,71,30.13,30.02,28,8,31,0.03
2013-2-13,72,68,66,60,58,55,79,72,64,30.07,29.95,18,7,25,0.00
2013-2-14,74,68,66,63,60,56,86,76,66,30.04,29.93,19,8,26,0.01
2013-2-15,75,70,66,66,63,59,85,79,68,30.04,29.94,20,10,27,0.01
2013-2-16,72,69,67,64,62,59,87,77,67,30.06,29.98,27,13,37,0.01
2013-2-17,72,69,66,63,61,59,86,77,68,30.10,29.97,29,15,39,0.01
2013-2-18,72,68,64,63,60,58,90,76,67,30.08,29.98,33,16,40,0.13
2013-2-19,72,68,64,64,61,55,91,79,67,30.09,29.98,26,13,33,0.26
2013-2-20,72,69,67,65,63,61,87,82,75,30.09,30.00,27,13,33,0.06
2013-2-21,71,68,65,66,64,61,93,87,81,30.07,30.00,32,12,33,0.40
2013-2-22,72,68,67,66,64,62,92,87,80,30.07,29.97,26,13,33,0.50
2013-2-23,72,69,66,65,64,62,91,83,75,30.07,29.97,27,12,33,0.06
2013-2-24,72,68,66,65,62,60,88,81,73,30.05,29.95,30,13,34,0.11
2013-2-25,72,68,66,64,62,60,88,82,75,30.08,29.97,25,12,32,0.04
2013-2-26,73,69,66,64,62,61,88,81,72,30.09,30.01,25,12,31,0.09
2013-2-27,74,69,67,63,60,57,82,74,55,30.12,30.02,22,11,29,0.00
2013-2-28,74,69,66,63,60,56,86,75,56,30.12,30.03,27,11,34,0.03